Latest Weather Observations for Nullo Mountain

IDN60801

Issued at 10:05 pm EDT Monday 20 October 2014 (issued every 30 minutes, with the page automatically refreshed every 10 minutes)

About weather observations | Map of weather stations | Latest weather observations for NSW | Other Formats
Station Details ID: 062100 Name: NULLO MOUNTAIN AWS Lat: -32.72 Lon: 150.23 Height: 1130.0 m
Data from the previous 72 hours. | See also: Recent months at Nullo Mountain
Date/Time
EDT
Temp
°C
App
Temp
°C
Dew
Point
Rel
Hum
%
Delta-T
°C
Wind Press
QNH
hPa
Press
MSL
hPa
Rain
since 9 am
mm
Dir
 
Spd
km/h
Gust
km/h
Spd
kts
Gust
kts
20/10:00pm 8.2 1.7 8.2 100 0.0 E 32 44 17 24 - - 0.0
20/09:30pm 8.7 2.7 8.7 100 0.0 E 30 44 16 24 - - 0.0
20/09:17pm 8.7 2.7 8.7 100 0.0 E 30 48 16 26 - - 0.0
20/09:00pm 8.8 2.5 8.8 100 0.0 E 32 46 17 25 - - 0.0
20/08:30pm 9.0 3.4 8.9 99 0.1 E 28 39 15 21 - - 0.0
20/08:01pm 9.4 3.8 8.8 96 0.3 E 28 48 15 26 - - 0.0
20/08:00pm 9.4 3.4 8.8 96 0.3 E 30 48 16 26 - - 0.0
20/07:56pm 9.5 3.9 8.9 96 0.3 E 28 48 15 26 - - 0.0
20/07:30pm 9.6 3.9 8.4 92 0.6 E 28 39 15 21 - - 0.0
20/07:00pm 10.0 4.6 8.1 88 1.0 E 26 43 14 23 - - 0.0
20/06:30pm 10.4 5.8 8.2 86 1.1 E 22 35 12 19 - - 0.0
20/06:00pm 10.6 5.6 8.0 84 1.3 E 24 37 13 20 - - 0.0
20/05:30pm 11.1 5.8 8.3 83 1.5 E 26 37 14 20 - - 0.0
20/05:00pm 12.1 7.7 8.8 80 1.8 E 22 33 12 18 - - 0.0
20/04:30pm 12.3 8.5 9.1 81 1.7 ESE 19 26 10 14 - - 0.0
20/04:00pm 13.0 9.3 9.4 79 1.9 E 19 28 10 15 - - 0.0
20/03:30pm 12.9 9.2 9.5 80 1.8 ESE 19 32 10 17 - - 0.0
20/03:00pm 13.9 10.3 9.9 77 2.2 E 19 28 10 15 - - 0.0
20/02:30pm 13.7 10.2 10.1 79 2.0 E 19 28 10 15 - - 0.0
20/02:00pm 13.2 9.6 9.8 80 1.9 ESE 19 28 10 15 - - 0.0
20/01:30pm 13.2 8.9 9.5 78 2.0 E 22 30 12 16 - - 0.0
20/01:00pm 13.1 9.5 9.9 81 1.7 ESE 19 28 10 15 - - 0.0
20/12:30pm 13.5 9.7 9.9 79 2.0 ESE 20 33 11 18 - - 0.0
20/12:00pm 13.5 9.8 10.3 81 1.8 E 20 32 11 17 - - 0.0
20/11:30am 13.6 10.5 10.4 81 1.8 E 17 26 9 14 - - 0.0
20/11:00am 14.2 11.2 10.6 79 2.0 E 17 24 9 13 - - 0.0
20/10:30am 14.9 12.2 10.5 75 2.5 ESE 15 24 8 13 - - 0.0
20/10:00am 15.8 12.4 9.2 65 3.6 ESE 17 22 9 12 - - 0.0
20/09:30am 16.9 13.5 7.8 55 4.9 ESE 15 22 8 12 - - 0.0
20/09:00am 17.9 14.1 5.8 45 6.3 E 15 24 8 13 - - 0.0
20/08:30am 18.4 14.4 4.9 41 6.9 SSE 15 24 8 13 - - 0.0
20/08:00am 18.7 15.8 4.5 39 7.2 S 9 17 5 9 - - 0.0
20/07:30am 17.7 14.7 4.3 41 6.7 S 9 15 5 8 - - 0.0
20/07:00am 16.2 13.3 4.6 46 5.8 SSE 9 13 5 7 - - 0.0
20/06:30am 15.9 13.3 4.0 45 5.9 S 7 9 4 5 - - 0.0
20/06:00am 15.9 13.4 4.6 47 5.6 SSW 7 11 4 6 - - 0.0
20/05:30am 15.7 13.3 5.3 50 5.3 SSW 7 11 4 6 - - 0.0
20/05:00am 15.4 13.3 5.9 53 4.9 SSW 6 9 3 5 - - 0.0
20/04:30am 15.3 13.3 6.3 55 4.6 SW 6 13 3 7 - - 0.0
20/04:00am 15.4 13.4 6.4 55 4.6 WSW 6 9 3 5 - - 0.0
20/03:30am 15.2 13.3 6.5 56 4.5 WSW 6 9 3 5 - - 0.0
20/03:00am 15.1 13.1 6.4 56 4.5 WSW 6 7 3 4 - - 0.0
20/02:30am 14.9 13.0 6.7 58 4.2 SW 6 9 3 5 - - 0.0
20/02:00am 15.3 13.3 7.1 58 4.3 SW 7 11 4 6 - - 0.0
20/01:30am 15.3 13.3 7.3 59 4.2 WSW 7 11 4 6 - - 0.0
20/01:00am 15.2 13.3 6.5 56 4.5 WSW 6 9 3 5 - - 0.0
20/12:30am 15.2 13.1 5.7 53 4.8 WSW 6 9 3 5 - - 0.0
20/12:00am 15.6 13.3 4.6 48 5.5 W 6 9 3 5 - - 0.0
 
Date/Time
EDT
Temp
°C
App
Temp
°C
Dew
Point
Rel
Hum
%
Delta-T
°C
Wind Press
QNH
hPa
Press
MSL
hPa
Rain
since 9 am
mm
Dir
 
Spd
km/h
Gust
km/h
Spd
kts
Gust
kts
19/11:30pm 15.8 13.3 3.9 45 5.9 W 6 9 3 5 - - 0.0
19/11:00pm 15.5 13.5 4.3 47 5.5 WNW 4 6 2 3 - - 0.0
19/10:30pm 15.8 13.6 3.6 44 6.0 WNW 4 7 2 4 - - 0.0
19/10:00pm 16.0 13.8 3.4 43 6.1 NNW 4 6 2 3 - - 0.0
19/09:30pm 14.5 12.3 3.6 48 5.3 N 4 6 2 3 - - 0.0
19/09:00pm 14.6 13.0 4.6 51 5.0 N 2 4 1 2 - - 0.0
19/08:30pm 15.1 13.9 4.5 49 5.3 CALM 0 0 0 0 - - 0.0
19/08:00pm 15.1 13.9 4.5 49 5.3 CALM 0 0 0 0 - - 0.0
19/07:30pm 15.1 13.8 5.9 54 4.7 SSW 2 4 1 2 - - 0.0
19/07:00pm 16.5 14.8 6.1 50 5.4 SSW 4 6 2 3 - - 0.0
19/06:30pm 19.3 17.2 5.7 41 7.1 SSW 6 7 3 4 - - 0.0
19/06:00pm 20.4 17.8 4.4 35 8.2 S 7 9 4 5 - - 0.0
19/05:30pm 21.3 18.8 4.0 32 8.9 WSW 6 11 3 6 - - 0.0
19/05:00pm 21.6 19.4 5.1 34 8.6 SSW 6 13 3 7 - - 0.0
19/04:30pm 21.4 18.8 4.0 32 8.9 SW 7 11 4 6 - - 0.0
19/04:00pm 21.0 18.7 5.8 37 8.0 S 7 13 4 7 - - 0.0
19/03:30pm 21.0 18.1 4.6 34 8.5 SSW 9 15 5 8 - - 0.0
19/03:00pm 20.9 18.3 3.2 31 8.9 WNW 6 13 3 7 - - 0.0
19/02:30pm 20.8 18.8 6.4 39 7.7 S 6 11 3 6 - - 0.0
19/02:00pm 20.1 18.0 5.7 39 7.6 SSW 6 17 3 9 - - 0.0
19/01:30pm 19.6 16.8 2.0 31 8.6 W 6 11 3 6 - - 0.0
19/01:00pm 19.5 17.3 7.9 47 6.3 NW 9 13 5 7 - - 0.0
19/12:30pm 17.8 15.8 4.4 41 6.8 E 4 7 2 4 - - 0.0
19/12:00pm 17.5 15.0 4.8 43 6.4 SW 7 15 4 8 - - 0.0
19/11:30am 16.8 14.9 4.8 45 6.1 WSW 4 11 2 6 - - 0.0
19/11:00am 16.5 14.5 6.1 50 5.4 WSW 6 11 3 6 - - 0.0
19/10:30am 15.9 14.0 6.9 55 4.7 W 6 9 3 5 - - 0.0
19/10:00am 15.4 13.4 6.4 55 4.6 NW 6 9 3 5 - - 0.0
19/09:30am 15.6 14.6 7.4 58 4.3 NW 2 6 1 3 - - 0.0
19/09:00am 14.2 12.4 5.6 56 4.3 W 4 6 2 3 - - 0.0
19/08:30am 14.7 13.4 5.8 55 4.5 E 2 4 1 2 - - 0.0
19/08:00am 13.2 12.5 6.8 65 3.3 CALM 0 2 0 1 - - 0.0
19/07:30am 11.2 10.4 6.5 73 2.4 CALM 0 0 0 0 - - 0.0
19/07:00am 8.3 6.2 4.1 75 2.0 E 4 4 2 2 - - 0.0
19/06:30am 7.0 4.8 3.1 76 1.8 E 4 6 2 3 - - 0.0
19/06:00am 6.5 3.9 3.3 80 1.4 E 6 6 3 3 - - 0.0
19/05:30am 6.5 4.3 3.1 79 1.5 E 4 6 2 3 - - 0.0
19/05:00am 7.9 5.8 3.9 76 1.9 E 4 6 2 3 - - 0.0
19/04:30am 7.4 5.7 3.8 78 1.7 ENE 2 6 1 3 - - 0.0
19/04:00am 7.6 5.5 4.0 78 1.7 E 4 6 2 3 - - 0.0
19/03:30am 8.4 6.4 4.6 77 1.8 ENE 4 7 2 4 - - 0.0
19/03:00am 7.0 4.6 4.5 84 1.2 E 6 7 3 4 - - 0.0
19/02:30am 6.7 4.7 4.5 86 1.0 ESE 4 4 2 2 - - 0.0
19/02:00am 6.7 4.4 4.7 87 0.9 E 6 7 3 4 - - 0.0
19/01:30am 6.6 4.3 4.8 88 0.8 E 6 7 3 4 - - 0.0
19/01:00am 6.8 4.5 4.8 87 0.9 E 6 9 3 5 - - 0.0
19/12:30am 6.1 3.6 4.6 90 0.7 E 7 9 4 5 - - 0.0
19/12:00am 6.7 4.2 4.9 88 0.8 E 7 9 4 5 - - 0.0
 
Date/Time
EDT
Temp
°C
App
Temp
°C
Dew
Point
Rel
Hum
%
Delta-T
°C
Wind Press
QNH
hPa
Press
MSL
hPa
Rain
since 9 am
mm
Dir
 
Spd
km/h
Gust
km/h
Spd
kts
Gust
kts
18/11:30pm 6.7 4.2 5.0 89 0.8 E 7 9 4 5 - - 0.0
18/11:00pm 7.5 4.7 5.1 85 1.1 E 9 11 5 6 - - 0.0
18/10:30pm 7.6 4.4 4.9 83 1.3 E 11 15 6 8 - - 0.0
18/10:00pm 7.5 4.6 4.6 82 1.4 E 9 15 5 8 - - 0.0
18/09:30pm 8.0 6.0 4.6 79 1.6 E 4 7 2 4 - - 0.0
18/09:00pm 8.2 5.7 4.0 75 2.0 ENE 6 11 3 6 - - 0.0
18/08:30pm 9.1 7.1 4.3 72 2.3 ENE 4 9 2 5 - - 0.0
18/08:00pm 9.8 6.9 4.6 70 2.5 E 9 15 5 8 - - 0.0
18/07:30pm 9.9 7.5 4.3 68 2.7 E 6 9 3 5 - - 0.0
18/07:00pm 12.4 10.5 4.9 60 3.7 NNE 4 9 2 5 - - 0.0
18/06:30pm 13.8 11.6 5.4 57 4.2 ENE 6 11 3 6 - - 0.0
18/06:00pm 14.2 11.7 4.5 52 4.8 E 7 11 4 6 - - 0.0
18/05:30pm 14.9 12.4 4.9 51 5.0 SE 7 13 4 7 - - 0.0
18/05:00pm 15.1 12.6 4.8 50 5.1 ESE 7 11 4 6 - - 0.0
18/04:30pm 15.5 12.9 6.0 53 4.9 E 9 13 5 7 - - 0.0
18/04:00pm 15.2 12.7 4.0 47 5.5 E 6 13 3 7 - - 0.0
18/03:30pm 14.3 11.2 3.5 48 5.2 E 9 15 5 8 - - 0.0
18/03:00pm 14.7 12.4 5.0 52 4.8 ENE 6 11 3 6 - - 0.0
18/02:30pm 14.1 11.5 4.4 52 4.8 ENE 7 19 4 10 - - 0.0
18/02:00pm 14.1 11.9 5.5 56 4.3 E 6 13 3 7 - - 0.0
18/01:30pm 13.3 11.0 5.0 57 4.1 E 6 11 3 6 - - 0.0
18/01:00pm 13.4 11.3 6.0 61 3.7 ESE 6 11 3 6 - - 0.0
18/12:30pm 12.5 9.9 4.2 57 4.0 ENE 7 11 4 6 - - 0.0
18/12:00pm 11.7 9.3 5.3 65 3.1 ESE 7 15 4 8 - - 0.0
18/11:30am 11.0 8.5 4.9 66 3.0 E 7 15 4 8 - - 0.0
18/11:00am 9.9 7.0 4.9 71 2.4 E 9 17 5 9 - - 0.0
18/10:30am - - - - - E 13 22 7 12 - - 0.0
18/10:00am - - - - - E 11 22 6 12 - - 0.0
18/09:30am - - - - - E 15 20 8 11 - - 0.0
18/09:00am - - - - - E 17 24 9 13 - - 0.0
18/08:30am - - - - - E 15 22 8 12 - - 0.0
18/08:00am - - - - - E 20 30 11 16 - - 0.0
18/07:30am - - - - - E 19 26 10 14 - - 0.0
18/07:00am - - - - - E 19 26 10 14 - - 0.0
18/06:30am - - - - - E 19 22 10 12 - - 0.0
18/06:00am - - - - - E 20 28 11 15 - - 0.0
18/05:30am - - - - - E 20 28 11 15 - - 0.0
18/05:00am - - - - - ESE 20 30 11 16 - - 0.0
18/04:30am - - - - - E 20 30 11 16 - - 0.0
18/04:00am 5.0 0.2 4.4 96 0.3 ESE 19 24 10 13 - - 0.0
18/03:30am - - - - - ESE 20 28 11 15 - - 0.0
18/03:00am - - - - - E 20 26 11 14 - - 0.0
18/02:30am - - - - - E 20 28 11 15 - - 0.0
18/02:00am 5.6 -0.1 4.9 95 0.3 E 24 32 13 17 - - 0.0
18/01:30am 6.1 0.9 5.4 95 0.3 E 22 30 12 16 - - 0.0
18/01:00am 6.2 1.6 5.6 96 0.3 E 19 26 10 14 - - 0.0
18/12:30am - - - - - E 17 28 9 15 - - 0.0
18/12:00am - - - - - E 20 30 11 16 - - 0.0
 
Date/Time
EDT
Temp
°C
App
Temp
°C
Dew
Point
Rel
Hum
%
Delta-T
°C
Wind Press
QNH
hPa
Press
MSL
hPa
Rain
since 9 am
mm
Dir
 
Spd
km/h
Gust
km/h
Spd
kts
Gust
kts
17/11:30pm - - - - - E 22 32 12 17 - - 0.0
17/11:00pm - - - - - E 22 35 12 19 - - 0.0
17/10:30pm - - - - - E 22 33 12 18 - - 0.0

Other Formats:

Comma delimited format used in spreadsheet applications
http://www.bom.gov.au/fwo/IDN60801/IDN60801.94754.axf

JavaScript Object Notation format (JSON) in row-major order
http://www.bom.gov.au/fwo/IDN60801/IDN60801.94754.json